»·PEaware :: N196EC KCMA-KCNO

N196EC :: KCMA-KCNO

FLIGHT INFORMATION

Flight Status: Arrived
Operator: Privately registered:
United States
More flights under this callsign
Pilot: Adrián R. (20842)
Aircraft: CESSNA 172 SKYHAWK
(C172)
More flights by this aircraft type
Origin: KCMA Camarillo
United States
Destination: KCNO Chino
United States
More flights between these airports :: More routes between these airports
Route: +
File this flight plan on PilotEdge
Remarks:
Altitude:
(Current/Filed)
5,500ft
Speed:
(Current/Filed)
110kts
Departed: 16-Nov-18 08:38 AM
Arrived: 16-Nov-18 09:27 AM
Distance/Time
Traveled:
73nm/0:49
Distance/Time
To Go:
Arrived

Flight Plot

Page will automatically refresh every two minutes.


Map Options




Map Legend


Flown Route
Filed Route
Departure Airport
Arrival Airport
Navaid (VOR, NDB)
Fix

Horizontal Profiles

Position Reports

Time Latitude Longitude Heading Altitude Ground
Speed
16-Nov-18 08:13 34.210214 -119.078408 88 81ft 0kts
16-Nov-18 08:14 34.210214 -119.078408 88 81ft 0kts
16-Nov-18 08:15 34.210214 -119.078408 88 81ft 0kts
16-Nov-18 08:16 34.210214 -119.078408 88 81ft 0kts
16-Nov-18 08:17 34.210214 -119.078408 88 81ft 0kts
16-Nov-18 08:18 34.210214 -119.078408 88 81ft 0kts
16-Nov-18 08:19 34.210214 -119.078408 88 81ft 0kts
16-Nov-18 08:20 34.210214 -119.078408 88 81ft 0kts
16-Nov-18 08:21 34.210214 -119.078408 88 81ft 0kts
16-Nov-18 08:22 34.210214 -119.078408 88 81ft 0kts
16-Nov-18 08:23 34.210214 -119.078408 88 81ft 0kts
16-Nov-18 08:24 34.210214 -119.078408 88 81ft 0kts
16-Nov-18 08:25 34.210214 -119.078408 88 81ft 0kts
16-Nov-18 08:26 34.210214 -119.078408 88 81ft 0kts
16-Nov-18 08:27 34.210214 -119.078408 88 81ft 0kts
16-Nov-18 08:28 34.210214 -119.078408 88 81ft 0kts
16-Nov-18 08:29 34.210214 -119.078408 88 81ft 0kts
16-Nov-18 08:30 34.210214 -119.078408 88 81ft 0kts
16-Nov-18 08:31 34.210214 -119.078408 88 81ft 0kts
16-Nov-18 08:32 34.210214 -119.078408 88 81ft 0kts
16-Nov-18 08:33 34.210236 -119.078346 45 81ft 2kts
16-Nov-18 08:34 34.210904 -119.080290 270 81ft 12kts
16-Nov-18 08:35 34.210970 -119.081164 266 81ft 2kts
16-Nov-18 08:36 34.211333 -119.084625 359 81ft 11kts
16-Nov-18 08:37 34.212611 -119.084284 341 81ft 0kts
16-Nov-18 08:38 34.212611 -119.084284 341 81ft 0kts
16-Nov-18 08:39 34.212611 -119.084284 341 81ft 0kts
16-Nov-18 08:40 34.212873 -119.084469 325 81ft 0kts
16-Nov-18 08:41 34.213718 -119.086831 271 81ft 48kts
16-Nov-18 08:42 34.213936 -119.112401 273 736ft 81kts
16-Nov-18 08:43 34.229711 -119.118434 50 1479ft 84kts
16-Nov-18 08:44 34.223311 -119.090660 120 2172ft 91kts
16-Nov-18 08:45 34.213254 -119.062829 107 2835ft 91kts
16-Nov-18 08:46 34.203641 -119.034260 114 3462ft 93kts
16-Nov-18 08:47 34.193992 -119.005398 106 4062ft 93kts
16-Nov-18 08:48 34.184423 -118.976040 105 4646ft 93kts
16-Nov-18 08:49 34.177027 -118.945781 100 5194ft 94kts
16-Nov-18 08:50 34.168388 -118.913444 107 5500ft 109kts
16-Nov-18 08:51 34.158781 -118.877666 103 5523ft 113kts
16-Nov-18 08:52 34.149998 -118.840736 99 5451ft 114kts
16-Nov-18 08:53 34.143560 -118.803395 95 5417ft 113kts
16-Nov-18 08:54 34.140183 -118.765866 89 5410ft 112kts
16-Nov-18 08:55 34.139730 -118.728567 84 5443ft 110kts
16-Nov-18 08:56 34.144333 -118.692308 73 5488ft 109kts
16-Nov-18 08:57 34.150676 -118.656348 76 5526ft 109kts
16-Nov-18 08:58 34.156440 -118.620321 77 5512ft 109kts
16-Nov-18 08:59 34.160326 -118.583912 81 5500ft 110kts
16-Nov-18 09:00 34.162255 -118.552401 88 5487ft 110kts
16-Nov-18 09:01 34.162752 -118.516215 87 5482ft 110kts
16-Nov-18 09:02 34.162004 -118.479471 94 5476ft 110kts
16-Nov-18 09:03 34.159131 -118.442994 92 5482ft 110kts
16-Nov-18 09:04 34.156209 -118.406024 92 5490ft 110kts
16-Nov-18 09:05 34.153784 -118.370969 93 5496ft 110kts
16-Nov-18 09:06 34.153319 -118.336042 85 5503ft 110kts
16-Nov-18 09:07 34.151889 -118.301176 96 5504ft 110kts
16-Nov-18 09:08 34.149910 -118.264337 91 5496ft 110kts
16-Nov-18 09:09 34.147088 -118.228102 91 5497ft 109kts
16-Nov-18 09:10 34.145644 -118.191492 91 5494ft 109kts
16-Nov-18 09:11 34.146382 -118.154923 87 5487ft 109kts
16-Nov-18 09:12 34.145915 -118.118402 90 5490ft 108kts
16-Nov-18 09:13 34.143651 -118.082036 93 5509ft 108kts
16-Nov-18 09:14 34.141297 -118.045643 92 5508ft 110kts
16-Nov-18 09:15 34.127073 -118.014471 135 5536ft 111kts
16-Nov-18 09:16 34.104890 -117.987936 134 5555ft 112kts
16-Nov-18 09:17 34.082911 -117.961159 131 5555ft 112kts
16-Nov-18 09:18 34.063442 -117.931931 123 5547ft 112kts
16-Nov-18 09:19 34.050355 -117.897589 107 5279ft 117kts
16-Nov-18 09:20 34.039859 -117.860774 109 4931ft 116kts
16-Nov-18 09:21 34.028007 -117.823805 109 4268ft 117kts
16-Nov-18 09:22 34.017500 -117.786779 108 3647ft 116kts
16-Nov-18 09:23 34.006137 -117.749987 114 2972ft 117kts
16-Nov-18 09:24 33.989242 -117.716823 129 2332ft 116kts
16-Nov-18 09:25 33.964700 -117.692177 142 1837ft 113kts
16-Nov-18 09:26 33.962409 -117.658066 88 1432ft 104kts
16-Nov-18 09:27 33.962758 -117.625760 87 1412ft 85kts
16-Nov-18 09:28 33.972720 -117.610323 328 1030ft 66kts
16-Nov-18 09:29 33.975823 -117.631458 269 670ft 67kts
16-Nov-18 09:30 33.976210 -117.644093 346 622ft 13kts
16-Nov-18 09:31 33.978107 -117.643426 358 628ft 15kts
16-Nov-18 09:32 33.979497 -117.644165 89 634ft 1kts
16-Nov-18 09:33 33.979498 -117.644090 87 634ft 0kts
16-Nov-18 09:34 33.979498 -117.644090 87 634ft 0kts

Navigation Log

Ident Type
Flight plan parsing failed, navigation log unavailable